sensor_id;sensor_type;location;lat;lon;timestamp;pressure;altitude;pressure_sealevel;temperature
42197;BMP280;27866;48.146;17.098;2023-08-17T00:00:29;99874.38;;;23.77
42197;BMP280;27866;48.146;17.098;2023-08-17T00:04:40;99855.69;;;23.78
42197;BMP280;27866;48.146;17.098;2023-08-17T00:08:52;99863.88;;;23.83
42197;BMP280;27866;48.146;17.098;2023-08-17T00:13:03;99872.09;;;24.02
42197;BMP280;27866;48.146;17.098;2023-08-17T00:17:15;99869.13;;;24.11
42197;BMP280;27866;48.146;17.098;2023-08-17T00:21:26;99862.28;;;24.16
42197;BMP280;27866;48.146;17.098;2023-08-17T00:25:37;99862.91;;;24.18
42197;BMP280;27866;48.146;17.098;2023-08-17T00:29:48;99847.66;;;24.20
42197;BMP280;27866;48.146;17.098;2023-08-17T00:33:59;99868.84;;;24.20
42197;BMP280;27866;48.146;17.098;2023-08-17T00:38:12;99851.22;;;24.27
42197;BMP280;27866;48.146;17.098;2023-08-17T00:42:23;99856.78;;;24.32
42197;BMP280;27866;48.146;17.098;2023-08-17T00:46:35;99859.69;;;24.37
42197;BMP280;27866;48.146;17.098;2023-08-17T00:50:49;99854.75;;;24.34
42197;BMP280;27866;48.146;17.098;2023-08-17T00:55:03;99871.78;;;24.25
42197;BMP280;27866;48.146;17.098;2023-08-17T00:59:15;99869.66;;;24.21
42197;BMP280;27866;48.146;17.098;2023-08-17T01:03:28;99878.53;;;24.13
42197;BMP280;27866;48.146;17.098;2023-08-17T01:07:42;99870.25;;;24.02
42197;BMP280;27866;48.146;17.098;2023-08-17T01:12:26;99868.16;;;23.98
42197;BMP280;27866;48.146;17.098;2023-08-17T01:16:56;99871.88;;;24.03
42197;BMP280;27866;48.146;17.098;2023-08-17T01:21:13;99878.00;;;24.04
42197;BMP280;27866;48.146;17.098;2023-08-17T01:25:25;99876.19;;;24.04
42197;BMP280;27866;48.146;17.098;2023-08-17T01:29:37;99875.91;;;24.13
42197;BMP280;27866;48.146;17.098;2023-08-17T01:33:54;99872.50;;;24.19
42197;BMP280;27866;48.146;17.098;2023-08-17T01:38:14;99876.03;;;24.26
42197;BMP280;27866;48.146;17.098;2023-08-17T01:42:29;99868.38;;;24.31
42197;BMP280;27866;48.146;17.098;2023-08-17T01:46:41;99868.00;;;24.34
42197;BMP280;27866;48.146;17.098;2023-08-17T01:50:53;99858.00;;;24.29
42197;BMP280;27866;48.146;17.098;2023-08-17T01:55:05;99862.06;;;24.32
42197;BMP280;27866;48.146;17.098;2023-08-17T01:59:17;99867.47;;;24.24
42197;BMP280;27866;48.146;17.098;2023-08-17T02:03:28;99864.75;;;24.18
42197;BMP280;27866;48.146;17.098;2023-08-17T02:07:40;99846.47;;;24.23
42197;BMP280;27866;48.146;17.098;2023-08-17T02:11:51;99839.44;;;24.29
42197;BMP280;27866;48.146;17.098;2023-08-17T02:16:05;99838.00;;;24.27
42197;BMP280;27866;48.146;17.098;2023-08-17T02:20:17;99839.25;;;24.31
42197;BMP280;27866;48.146;17.098;2023-08-17T02:24:28;99835.16;;;24.28
42197;BMP280;27866;48.146;17.098;2023-08-17T02:28:39;99834.78;;;24.31
42197;BMP280;27866;48.146;17.098;2023-08-17T02:32:51;99830.94;;;24.34
42197;BMP280;27866;48.146;17.098;2023-08-17T02:37:02;99837.16;;;24.26
42197;BMP280;27866;48.146;17.098;2023-08-17T02:41:13;99838.81;;;24.27
42197;BMP280;27866;48.146;17.098;2023-08-17T02:45:25;99840.25;;;24.30
42197;BMP280;27866;48.146;17.098;2023-08-17T02:49:36;99833.53;;;24.27
42197;BMP280;27866;48.146;17.098;2023-08-17T02:53:47;99828.22;;;24.27
42197;BMP280;27866;48.146;17.098;2023-08-17T02:57:58;99835.22;;;24.35
42197;BMP280;27866;48.146;17.098;2023-08-17T03:02:10;99833.84;;;24.39
42197;BMP280;27866;48.146;17.098;2023-08-17T03:06:21;99837.97;;;24.41
42197;BMP280;27866;48.146;17.098;2023-08-17T03:10:32;99843.34;;;24.47
42197;BMP280;27866;48.146;17.098;2023-08-17T03:14:43;99835.47;;;24.54
42197;BMP280;27866;48.146;17.098;2023-08-17T03:18:55;99832.63;;;24.55
42197;BMP280;27866;48.146;17.098;2023-08-17T03:23:06;99835.06;;;24.56
42197;BMP280;27866;48.146;17.098;2023-08-17T03:27:19;99840.56;;;24.55
42197;BMP280;27866;48.146;17.098;2023-08-17T03:31:30;99843.22;;;24.55
42197;BMP280;27866;48.146;17.098;2023-08-17T03:35:42;99844.84;;;24.56
42197;BMP280;27866;48.146;17.098;2023-08-17T03:39:53;99844.47;;;24.59
42197;BMP280;27866;48.146;17.098;2023-08-17T03:44:05;99852.00;;;24.55
42197;BMP280;27866;48.146;17.098;2023-08-17T03:48:17;99860.72;;;24.56
42197;BMP280;27866;48.146;17.098;2023-08-17T03:52:28;99857.91;;;24.57
42197;BMP280;27866;48.146;17.098;2023-08-17T03:56:39;99867.69;;;24.57
42197;BMP280;27866;48.146;17.098;2023-08-17T04:00:51;99859.09;;;24.55
42197;BMP280;27866;48.146;17.098;2023-08-17T04:05:08;99861.75;;;24.55
42197;BMP280;27866;48.146;17.098;2023-08-17T04:09:20;99857.47;;;24.54
42197;BMP280;27866;48.146;17.098;2023-08-17T04:13:32;99870.34;;;24.57
42197;BMP280;27866;48.146;17.098;2023-08-17T04:17:43;99868.56;;;24.64
42197;BMP280;27866;48.146;17.098;2023-08-17T04:21:54;99866.19;;;24.68
42197;BMP280;27866;48.146;17.098;2023-08-17T04:26:05;99862.78;;;24.74
42197;BMP280;27866;48.146;17.098;2023-08-17T04:30:17;99864.53;;;24.88
42197;BMP280;27866;48.146;17.098;2023-08-17T04:34:38;99863.19;;;24.98
42197;BMP280;27866;48.146;17.098;2023-08-17T04:38:49;99865.72;;;25.06
42197;BMP280;27866;48.146;17.098;2023-08-17T04:43:01;99875.22;;;25.14
42197;BMP280;27866;48.146;17.098;2023-08-17T04:47:13;99875.63;;;25.18
42197;BMP280;27866;48.146;17.098;2023-08-17T04:51:24;99859.66;;;25.12
42197;BMP280;27866;48.146;17.098;2023-08-17T04:55:36;99863.91;;;25.06
42197;BMP280;27866;48.146;17.098;2023-08-17T04:59:48;99862.75;;;25.15
42197;BMP280;27866;48.146;17.098;2023-08-17T05:04:01;99868.63;;;25.37
42197;BMP280;27866;48.146;17.098;2023-08-17T05:08:13;99858.69;;;25.72
42197;BMP280;27866;48.146;17.098;2023-08-17T05:12:25;99869.13;;;26.13
42197;BMP280;27866;48.146;17.098;2023-08-17T05:16:37;99860.69;;;26.42
42197;BMP280;27866;48.146;17.098;2023-08-17T05:20:48;99858.91;;;26.61
42197;BMP280;27866;48.146;17.098;2023-08-17T05:25:00;99857.88;;;26.69
42197;BMP280;27866;48.146;17.098;2023-08-17T05:29:12;99857.88;;;26.69
42197;BMP280;27866;48.146;17.098;2023-08-17T05:33:24;99855.88;;;26.77
42197;BMP280;27866;48.146;17.098;2023-08-17T05:37:37;99853.44;;;26.94
42197;BMP280;27866;48.146;17.098;2023-08-17T05:41:48;99864.69;;;27.15
42197;BMP280;27866;48.146;17.098;2023-08-17T05:45:59;99868.78;;;27.36
42197;BMP280;27866;48.146;17.098;2023-08-17T05:50:11;99880.03;;;27.57
42197;BMP280;27866;48.146;17.098;2023-08-17T05:54:22;99867.91;;;27.80
42197;BMP280;27866;48.146;17.098;2023-08-17T05:58:33;99868.91;;;27.98
42197;BMP280;27866;48.146;17.098;2023-08-17T06:02:44;99872.41;;;27.92
42197;BMP280;27866;48.146;17.098;2023-08-17T06:07:00;99880.41;;;27.79
42197;BMP280;27866;48.146;17.098;2023-08-17T06:11:11;99013.06;;;27.56
42197;BMP280;27866;48.146;17.098;2023-08-17T06:15:24;99881.25;;;27.42
42197;BMP280;27866;48.146;17.098;2023-08-17T06:19:35;99884.75;;;27.36
42197;BMP280;27866;48.146;17.098;2023-08-17T06:23:46;99879.03;;;27.46
42197;BMP280;27866;48.146;17.098;2023-08-17T06:27:58;99885.38;;;27.63
42197;BMP280;27866;48.146;17.098;2023-08-17T06:32:09;99881.03;;;27.75
42197;BMP280;27866;48.146;17.098;2023-08-17T06:36:20;99883.28;;;27.78
42197;BMP280;27866;48.146;17.098;2023-08-17T06:40:31;99888.00;;;27.76
42197;BMP280;27866;48.146;17.098;2023-08-17T06:44:42;99888.53;;;27.97
42197;BMP280;27866;48.146;17.098;2023-08-17T06:48:54;99885.06;;;28.09
42197;BMP280;27866;48.146;17.098;2023-08-17T06:53:05;99894.81;;;28.27
42197;BMP280;27866;48.146;17.098;2023-08-17T06:57:16;99892.94;;;28.34
42197;BMP280;27866;48.146;17.098;2023-08-17T07:01:27;99889.44;;;28.40
42197;BMP280;27866;48.146;17.098;2023-08-17T07:05:39;99894.91;;;28.57
42197;BMP280;27866;48.146;17.098;2023-08-17T07:09:50;99888.47;;;28.71
42197;BMP280;27866;48.146;17.098;2023-08-17T07:14:01;99895.88;;;28.69
42197;BMP280;27866;48.146;17.098;2023-08-17T07:18:12;99891.31;;;28.76
42197;BMP280;27866;48.146;17.098;2023-08-17T07:22:24;99896.25;;;28.72
42197;BMP280;27866;48.146;17.098;2023-08-17T07:26:35;99893.66;;;28.96
42197;BMP280;27866;48.146;17.098;2023-08-17T07:30:46;99904.44;;;29.07
42197;BMP280;27866;48.146;17.098;2023-08-17T07:34:57;99898.66;;;29.10
42197;BMP280;27866;48.146;17.098;2023-08-17T07:39:08;99898.66;;;29.10
42197;BMP280;27866;48.146;17.098;2023-08-17T07:43:19;99898.16;;;29.25
42197;BMP280;27866;48.146;17.098;2023-08-17T07:47:31;99899.94;;;29.55
42197;BMP280;27866;48.146;17.098;2023-08-17T07:51:42;99904.75;;;29.70
42197;BMP280;27866;48.146;17.098;2023-08-17T07:55:53;99901.22;;;29.76
42197;BMP280;27866;48.146;17.098;2023-08-17T08:00:05;99893.38;;;29.81
42197;BMP280;27866;48.146;17.098;2023-08-17T08:04:19;99880.47;;;29.95
42197;BMP280;27866;48.146;17.098;2023-08-17T08:08:30;99890.41;;;29.89
42197;BMP280;27866;48.146;17.098;2023-08-17T08:12:41;99894.19;;;29.58
42197;BMP280;27866;48.146;17.098;2023-08-17T08:16:52;99896.53;;;29.48
42197;BMP280;27866;48.146;17.098;2023-08-17T08:21:03;99899.22;;;29.24
42197;BMP280;27866;48.146;17.098;2023-08-17T08:25:15;99898.41;;;29.24
42197;BMP280;27866;48.146;17.098;2023-08-17T08:29:26;99902.31;;;28.85
42197;BMP280;27866;48.146;17.098;2023-08-17T08:33:37;99898.13;;;29.02
42197;BMP280;27866;48.146;17.098;2023-08-17T08:37:49;99895.28;;;29.50
42197;BMP280;27866;48.146;17.098;2023-08-17T08:42:00;99881.50;;;29.94
42197;BMP280;27866;48.146;17.098;2023-08-17T08:46:11;99892.03;;;30.42
42197;BMP280;27866;48.146;17.098;2023-08-17T08:50:26;99877.84;;;30.87
42197;BMP280;27866;48.146;17.098;2023-08-17T08:54:41;99874.25;;;31.33
42197;BMP280;27866;48.146;17.098;2023-08-17T08:58:54;99872.88;;;31.64
42197;BMP280;27866;48.146;17.098;2023-08-17T09:03:05;99879.53;;;31.72
42197;BMP280;27866;48.146;17.098;2023-08-17T09:07:17;99863.00;;;31.64
42197;BMP280;27866;48.146;17.098;2023-08-17T09:11:29;99864.97;;;31.69
42197;BMP280;27866;48.146;17.098;2023-08-17T09:15:41;99863.94;;;31.70
42197;BMP280;27866;48.146;17.098;2023-08-17T09:19:52;99860.19;;;31.48
42197;BMP280;27866;48.146;17.098;2023-08-17T09:24:04;99861.00;;;31.49
42197;BMP280;27866;48.146;17.098;2023-08-17T09:28:19;99852.84;;;31.66
42197;BMP280;27866;48.146;17.098;2023-08-17T09:32:32;99844.06;;;32.26
42197;BMP280;27866;48.146;17.098;2023-08-17T09:36:46;99850.53;;;32.95
42197;BMP280;27866;48.146;17.098;2023-08-17T09:40:58;99844.97;;;33.60
42197;BMP280;27866;48.146;17.098;2023-08-17T09:45:10;99836.38;;;34.58
42197;BMP280;27866;48.146;17.098;2023-08-17T09:49:23;99837.22;;;35.45
42197;BMP280;27866;48.146;17.098;2023-08-17T09:53:36;99829.84;;;36.06
42197;BMP280;27866;48.146;17.098;2023-08-17T09:57:51;99821.81;;;37.19
42197;BMP280;27866;48.146;17.098;2023-08-17T10:02:03;99807.66;;;40.58
42197;BMP280;27866;48.146;17.098;2023-08-17T10:06:23;99821.78;;;37.72
42197;BMP280;27866;48.146;17.098;2023-08-17T10:10:40;99808.63;;;43.88
42197;BMP280;27866;48.146;17.098;2023-08-17T10:15:02;99793.69;;;46.72
42197;BMP280;27866;48.146;17.098;2023-08-17T10:23:54;99799.78;;;43.19
42197;BMP280;27866;48.146;17.098;2023-08-17T10:28:06;99772.03;;;43.98
42197;BMP280;27866;48.146;17.098;2023-08-17T10:32:22;99770.47;;;45.00
42197;BMP280;27866;48.146;17.098;2023-08-17T10:36:34;99772.84;;;44.06
42197;BMP280;27866;48.146;17.098;2023-08-17T10:41:10;99774.03;;;46.14
42197;BMP280;27866;48.146;17.098;2023-08-17T10:49:33;99772.69;;;48.13
42197;BMP280;27866;48.146;17.098;2023-08-17T10:53:44;99762.25;;;49.45
42197;BMP280;27866;48.146;17.098;2023-08-17T10:57:55;99738.16;;;50.14
42197;BMP280;27866;48.146;17.098;2023-08-17T11:02:07;99759.97;;;48.94
42197;BMP280;27866;48.146;17.098;2023-08-17T11:06:18;99745.69;;;49.72
42197;BMP280;27866;48.146;17.098;2023-08-17T11:10:30;99756.00;;;51.41
42197;BMP280;27866;48.146;17.098;2023-08-17T11:14:45;99740.31;;;51.89
42197;BMP280;27866;48.146;17.098;2023-08-17T11:18:56;99734.53;;;50.95
42197;BMP280;27866;48.146;17.098;2023-08-17T11:23:10;99731.13;;;51.01
42197;BMP280;27866;48.146;17.098;2023-08-17T11:27:22;99708.75;;;49.88
42197;BMP280;27866;48.146;17.098;2023-08-17T11:31:34;99731.97;;;47.18
42197;BMP280;27866;48.146;17.098;2023-08-17T11:35:45;99718.50;;;49.85
42197;BMP280;27866;48.146;17.098;2023-08-17T11:39:56;99712.78;;;50.57
42197;BMP280;27866;48.146;17.098;2023-08-17T11:44:08;99713.63;;;50.42
42197;BMP280;27866;48.146;17.098;2023-08-17T11:48:19;99715.88;;;51.47
42197;BMP280;27866;48.146;17.098;2023-08-17T11:52:31;99709.13;;;51.88
42197;BMP280;27866;48.146;17.098;2023-08-17T11:56:49;99722.56;;;51.90
42197;BMP280;27866;48.146;17.098;2023-08-17T12:01:01;99697.56;;;47.63
42197;BMP280;27866;48.146;17.098;2023-08-17T12:05:12;99706.72;;;48.02
42197;BMP280;27866;48.146;17.098;2023-08-17T12:09:23;99685.84;;;44.79
42197;BMP280;27866;48.146;17.098;2023-08-17T12:13:35;99685.84;;;44.79
42197;BMP280;27866;48.146;17.098;2023-08-17T12:17:48;99676.69;;;38.79
42197;BMP280;27866;48.146;17.098;2023-08-17T12:22:00;99668.75;;;37.56
42197;BMP280;27866;48.146;17.098;2023-08-17T12:26:19;99683.16;;;43.46
42197;BMP280;27866;48.146;17.098;2023-08-17T12:30:31;99663.91;;;42.70
42197;BMP280;27866;48.146;17.098;2023-08-17T12:34:43;99655.00;;;39.39
42197;BMP280;27866;48.146;17.098;2023-08-17T12:38:55;99647.19;;;37.37
42197;BMP280;27866;48.146;17.098;2023-08-17T12:43:07;99647.03;;;39.47
42197;BMP280;27866;48.146;17.098;2023-08-17T12:47:18;99646.78;;;44.13
42197;BMP280;27866;48.146;17.098;2023-08-17T12:51:29;99625.84;;;45.51
42197;BMP280;27866;48.146;17.098;2023-08-17T12:55:40;99636.69;;;41.50
42197;BMP280;27866;48.146;17.098;2023-08-17T12:59:52;99631.09;;;38.63
42197;BMP280;27866;48.146;17.098;2023-08-17T13:04:03;99624.63;;;36.95
42197;BMP280;27866;48.146;17.098;2023-08-17T13:08:15;99631.44;;;39.98
42197;BMP280;27866;48.146;17.098;2023-08-17T13:12:26;99627.66;;;44.54
42197;BMP280;27866;48.146;17.098;2023-08-17T13:16:37;99622.06;;;46.32
42197;BMP280;27866;48.146;17.098;2023-08-17T13:20:48;99616.16;;;47.47
42197;BMP280;27866;48.146;17.098;2023-08-17T13:24:59;99610.91;;;43.98
42197;BMP280;27866;48.146;17.098;2023-08-17T13:29:11;99602.56;;;40.43
42197;BMP280;27866;48.146;17.098;2023-08-17T13:33:22;99606.09;;;38.01
42197;BMP280;27866;48.146;17.098;2023-08-17T13:37:33;99606.28;;;36.53
42197;BMP280;27866;48.146;17.098;2023-08-17T13:41:45;99606.28;;;36.53
42197;BMP280;27866;48.146;17.098;2023-08-17T13:45:56;99597.00;;;33.86
42197;BMP280;27866;48.146;17.098;2023-08-17T13:50:08;99592.53;;;33.08
42197;BMP280;27866;48.146;17.098;2023-08-17T13:54:20;99590.59;;;33.03
42197;BMP280;27866;48.146;17.098;2023-08-17T13:58:31;99589.25;;;33.22
42197;BMP280;27866;48.146;17.098;2023-08-17T14:02:42;99579.72;;;32.94
42197;BMP280;27866;48.146;17.098;2023-08-17T14:06:53;99593.53;;;33.02
42197;BMP280;27866;48.146;17.098;2023-08-17T14:11:04;99593.38;;;32.92
42197;BMP280;27866;48.146;17.098;2023-08-17T14:15:17;99595.50;;;32.90
42197;BMP280;27866;48.146;17.098;2023-08-17T14:19:28;99599.56;;;32.61
42197;BMP280;27866;48.146;17.098;2023-08-17T14:23:40;99608.28;;;32.52
42197;BMP280;27866;48.146;17.098;2023-08-17T14:27:51;99631.47;;;31.33
42197;BMP280;27866;48.146;17.098;2023-08-17T14:32:02;99634.84;;;31.18
42197;BMP280;27866;48.146;17.098;2023-08-17T14:36:14;99643.50;;;30.86
42197;BMP280;27866;48.146;17.098;2023-08-17T14:40:26;99640.47;;;31.05
42197;BMP280;27866;48.146;17.098;2023-08-17T14:44:38;99647.81;;;31.70
42197;BMP280;27866;48.146;17.098;2023-08-17T14:48:49;99646.22;;;31.47
42197;BMP280;27866;48.146;17.098;2023-08-17T14:53:01;99637.75;;;31.16
42197;BMP280;27866;48.146;17.098;2023-08-17T14:57:13;99641.50;;;31.04
42197;BMP280;27866;48.146;17.098;2023-08-17T15:01:24;99647.69;;;30.82
42197;BMP280;27866;48.146;17.098;2023-08-17T15:05:35;99652.53;;;30.63
42197;BMP280;27866;48.146;17.098;2023-08-17T15:09:48;99649.84;;;30.52
42197;BMP280;27866;48.146;17.098;2023-08-17T15:13:59;99639.50;;;30.55
42197;BMP280;27866;48.146;17.098;2023-08-17T15:18:10;99638.91;;;30.42
42197;BMP280;27866;48.146;17.098;2023-08-17T15:22:21;99630.22;;;30.47
42197;BMP280;27866;48.146;17.098;2023-08-17T15:26:33;99626.28;;;30.49
42197;BMP280;27866;48.146;17.098;2023-08-17T15:30:44;99623.13;;;30.52
42197;BMP280;27866;48.146;17.098;2023-08-17T15:34:55;99631.31;;;30.68
42197;BMP280;27866;48.146;17.098;2023-08-17T15:39:06;99630.00;;;30.82
42197;BMP280;27866;48.146;17.098;2023-08-17T15:43:18;99626.75;;;30.80
42197;BMP280;27866;48.146;17.098;2023-08-17T15:47:29;99626.41;;;30.87
42197;BMP280;27866;48.146;17.098;2023-08-17T15:51:40;99610.81;;;30.84
42197;BMP280;27866;48.146;17.098;2023-08-17T15:55:51;99615.38;;;30.73
42197;BMP280;27866;48.146;17.098;2023-08-17T16:00:03;99616.25;;;30.67
42197;BMP280;27866;48.146;17.098;2023-08-17T16:04:19;99613.59;;;30.56
42197;BMP280;27866;48.146;17.098;2023-08-17T16:08:31;99611.13;;;30.32
42197;BMP280;27866;48.146;17.098;2023-08-17T16:12:42;99611.59;;;30.29
42197;BMP280;27866;48.146;17.098;2023-08-17T16:16:53;99602.09;;;30.44
42197;BMP280;27866;48.146;17.098;2023-08-17T16:21:05;99601.41;;;30.49
42197;BMP280;27866;48.146;17.098;2023-08-17T16:25:17;99593.81;;;30.35
42197;BMP280;27866;48.146;17.098;2023-08-17T16:29:29;99599.50;;;30.16
42197;BMP280;27866;48.146;17.098;2023-08-17T16:33:40;99605.69;;;29.99
42197;BMP280;27866;48.146;17.098;2023-08-17T16:37:51;99601.97;;;29.89
42197;BMP280;27866;48.146;17.098;2023-08-17T16:42:03;99606.69;;;29.58
42197;BMP280;27866;48.146;17.098;2023-08-17T16:46:14;99598.06;;;29.45
42197;BMP280;27866;48.146;17.098;2023-08-17T16:50:25;99607.16;;;29.38
42197;BMP280;27866;48.146;17.098;2023-08-17T16:54:36;99600.81;;;29.21
42197;BMP280;27866;48.146;17.098;2023-08-17T16:58:48;99591.72;;;29.11
42197;BMP280;27866;48.146;17.098;2023-08-17T17:02:59;99586.88;;;29.02
42197;BMP280;27866;48.146;17.098;2023-08-17T17:07:10;99587.16;;;28.94
42197;BMP280;27866;48.146;17.098;2023-08-17T17:11:22;99597.47;;;28.91
42197;BMP280;27866;48.146;17.098;2023-08-17T17:15:33;99603.84;;;28.90
42197;BMP280;27866;48.146;17.098;2023-08-17T17:19:44;99606.56;;;28.66
42197;BMP280;27866;48.146;17.098;2023-08-17T17:23:55;99597.22;;;28.34
42197;BMP280;27866;48.146;17.098;2023-08-17T17:28:06;99601.34;;;28.30
42197;BMP280;27866;48.146;17.098;2023-08-17T17:32:18;99603.72;;;28.20
42197;BMP280;27866;48.146;17.098;2023-08-17T17:36:29;99609.78;;;28.04
42197;BMP280;27866;48.146;17.098;2023-08-17T17:40:41;99618.63;;;27.91
42197;BMP280;27866;48.146;17.098;2023-08-17T17:44:52;99615.19;;;27.85
42197;BMP280;27866;48.146;17.098;2023-08-17T17:49:03;99613.81;;;27.76
42197;BMP280;27866;48.146;17.098;2023-08-17T17:53:14;99620.03;;;27.64
42197;BMP280;27866;48.146;17.098;2023-08-17T17:57:26;99622.78;;;27.51
42197;BMP280;27866;48.146;17.098;2023-08-17T18:01:37;99621.59;;;27.41
42197;BMP280;27866;48.146;17.098;2023-08-17T18:05:49;99626.94;;;27.35
42197;BMP280;27866;48.146;17.098;2023-08-17T18:10:00;99634.94;;;27.29
42197;BMP280;27866;48.146;17.098;2023-08-17T18:14:13;99643.13;;;27.21
42197;BMP280;27866;48.146;17.098;2023-08-17T18:18:25;99657.28;;;27.15
42197;BMP280;27866;48.146;17.098;2023-08-17T18:22:36;99669.56;;;27.03
42197;BMP280;27866;48.146;17.098;2023-08-17T18:26:47;99676.38;;;27.00
42197;BMP280;27866;48.146;17.098;2023-08-17T18:30:58;99671.06;;;26.87
42197;BMP280;27866;48.146;17.098;2023-08-17T18:35:10;99680.25;;;26.78
42197;BMP280;27866;48.146;17.098;2023-08-17T18:39:21;99689.84;;;26.79
42197;BMP280;27866;48.146;17.098;2023-08-17T18:43:33;99688.84;;;26.80
42197;BMP280;27866;48.146;17.098;2023-08-17T18:47:45;99706.44;;;26.75
42197;BMP280;27866;48.146;17.098;2023-08-17T18:51:57;99710.31;;;26.73
42197;BMP280;27866;48.146;17.098;2023-08-17T18:56:08;99718.06;;;26.68
42197;BMP280;27866;48.146;17.098;2023-08-17T19:00:20;99716.81;;;26.64
42197;BMP280;27866;48.146;17.098;2023-08-17T19:04:31;99726.44;;;26.65
42197;BMP280;27866;48.146;17.098;2023-08-17T19:08:42;99720.72;;;26.68
42197;BMP280;27866;48.146;17.098;2023-08-17T19:12:53;99709.47;;;26.66
42197;BMP280;27866;48.146;17.098;2023-08-17T19:17:05;99706.00;;;26.59
42197;BMP280;27866;48.146;17.098;2023-08-17T19:21:16;99716.00;;;26.51
42197;BMP280;27866;48.146;17.098;2023-08-17T19:25:27;99713.38;;;26.44
42197;BMP280;27866;48.146;17.098;2023-08-17T19:29:38;99713.78;;;26.48
42197;BMP280;27866;48.146;17.098;2023-08-17T19:33:49;99715.41;;;26.43
42197;BMP280;27866;48.146;17.098;2023-08-17T19:38:01;99703.13;;;26.42
42197;BMP280;27866;48.146;17.098;2023-08-17T19:42:12;99698.25;;;26.39
42197;BMP280;27866;48.146;17.098;2023-08-17T19:46:24;99702.34;;;26.35
42197;BMP280;27866;48.146;17.098;2023-08-17T19:50:35;99708.03;;;26.32
42197;BMP280;27866;48.146;17.098;2023-08-17T19:54:47;99724.75;;;26.26
42197;BMP280;27866;48.146;17.098;2023-08-17T19:59:02;99717.81;;;26.25
42197;BMP280;27866;48.146;17.098;2023-08-17T20:03:14;99716.16;;;26.24
42197;BMP280;27866;48.146;17.098;2023-08-17T20:07:25;99713.72;;;26.23
42197;BMP280;27866;48.146;17.098;2023-08-17T20:11:36;99719.44;;;26.20
42197;BMP280;27866;48.146;17.098;2023-08-17T20:15:53;99715.75;;;26.14
42197;BMP280;27866;48.146;17.098;2023-08-17T20:20:06;99719.81;;;26.17
42197;BMP280;27866;48.146;17.098;2023-08-17T20:24:20;99722.31;;;26.18
42197;BMP280;27866;48.146;17.098;2023-08-17T20:28:31;99723.31;;;26.17
42197;BMP280;27866;48.146;17.098;2023-08-17T20:32:43;99724.72;;;26.14
42197;BMP280;27866;48.146;17.098;2023-08-17T20:36:54;99726.34;;;26.08
42197;BMP280;27866;48.146;17.098;2023-08-17T20:41:05;99724.91;;;26.06
42197;BMP280;27866;48.146;17.098;2023-08-17T20:45:16;99731.88;;;26.07
42197;BMP280;27866;48.146;17.098;2023-08-17T20:49:28;99727.97;;;26.09
42197;BMP280;27866;48.146;17.098;2023-08-17T20:53:40;99725.16;;;26.11
42197;BMP280;27866;48.146;17.098;2023-08-17T20:57:51;99731.47;;;26.10
42197;BMP280;27866;48.146;17.098;2023-08-17T21:02:02;99727.97;;;26.09
42197;BMP280;27866;48.146;17.098;2023-08-17T21:06:14;99726.78;;;26.12
42197;BMP280;27866;48.146;17.098;2023-08-17T21:10:25;99726.78;;;26.12
42197;BMP280;27866;48.146;17.098;2023-08-17T21:14:36;99731.88;;;26.07
42197;BMP280;27866;48.146;17.098;2023-08-17T21:18:47;99739.84;;;26.07
42197;BMP280;27866;48.146;17.098;2023-08-17T21:22:59;99736.56;;;26.05
42197;BMP280;27866;48.146;17.098;2023-08-17T21:27:10;99737.56;;;26.04
42197;BMP280;27866;48.146;17.098;2023-08-17T21:31:21;99731.03;;;25.94
42197;BMP280;27866;48.146;17.098;2023-08-17T21:35:33;99742.22;;;25.89
42197;BMP280;27866;48.146;17.098;2023-08-17T21:39:46;99739.63;;;25.96
42197;BMP280;27866;48.146;17.098;2023-08-17T21:43:57;99739.41;;;25.97
42197;BMP280;27866;48.146;17.098;2023-08-17T21:48:09;99739.16;;;25.92
42197;BMP280;27866;48.146;17.098;2023-08-17T21:52:20;99732.44;;;25.96
42197;BMP280;27866;48.146;17.098;2023-08-17T21:56:31;99728.78;;;25.97
42197;BMP280;27866;48.146;17.098;2023-08-17T22:00:44;99727.31;;;25.88
42197;BMP280;27866;48.146;17.098;2023-08-17T22:04:55;99731.22;;;25.86
42197;BMP280;27866;48.146;17.098;2023-08-17T22:09:07;99735.91;;;25.84
42197;BMP280;27866;48.146;17.098;2023-08-17T22:13:18;99726.88;;;25.79
42197;BMP280;27866;48.146;17.098;2023-08-17T22:17:29;99731.59;;;25.77
42197;BMP280;27866;48.146;17.098;2023-08-17T22:21:40;99736.91;;;25.77
42197;BMP280;27866;48.146;17.098;2023-08-17T22:25:53;99727.25;;;25.70
42197;BMP280;27866;48.146;17.098;2023-08-17T22:30:05;99730.31;;;25.67
42197;BMP280;27866;48.146;17.098;2023-08-17T22:34:16;99723.50;;;25.58
42197;BMP280;27866;48.146;17.098;2023-08-17T22:38:28;99719.00;;;25.58
42197;BMP280;27866;48.146;17.098;2023-08-17T22:42:39;99713.88;;;25.51
42197;BMP280;27866;48.146;17.098;2023-08-17T22:46:50;99715.13;;;25.48
42197;BMP280;27866;48.146;17.098;2023-08-17T22:51:02;99724.50;;;25.51
42197;BMP280;27866;48.146;17.098;2023-08-17T22:55:13;99719.22;;;25.57
42197;BMP280;27866;48.146;17.098;2023-08-17T22:59:25;99718.03;;;25.59
42197;BMP280;27866;48.146;17.098;2023-08-17T23:03:36;99713.09;;;25.56
42197;BMP280;27866;48.146;17.098;2023-08-17T23:07:48;99714.09;;;25.49
42197;BMP280;27866;48.146;17.098;2023-08-17T23:11:59;99718.34;;;25.44
42197;BMP280;27866;48.146;17.098;2023-08-17T23:16:10;99712.44;;;25.42
42197;BMP280;27866;48.146;17.098;2023-08-17T23:20:21;99718.72;;;25.41
42197;BMP280;27866;48.146;17.098;2023-08-17T23:24:32;99721.59;;;25.40
42197;BMP280;27866;48.146;17.098;2023-08-17T23:28:48;99719.13;;;25.38
42197;BMP280;27866;48.146;17.098;2023-08-17T23:32:59;99724.03;;;25.35
42197;BMP280;27866;48.146;17.098;2023-08-17T23:37:10;99729.06;;;25.30
42197;BMP280;27866;48.146;17.098;2023-08-17T23:41:22;99731.50;;;25.25
42197;BMP280;27866;48.146;17.098;2023-08-17T23:45:33;99724.38;;;25.26
42197;BMP280;27866;48.146;17.098;2023-08-17T23:49:44;99726.41;;;25.24
42197;BMP280;27866;48.146;17.098;2023-08-17T23:53:55;99729.63;;;25.19
42197;BMP280;27866;48.146;17.098;2023-08-17T23:58:06;99727.97;;;25.18
